Time;durP1;ratioP1;P1;durP2;ratioP2;P2;SDS_P1;SDS_P2;PMS_P1;PMS_P2;Temp;Humidity;BMP_temperature;BMP_pressure;BME280_temperature;BME280_humidity;BME280_pressure;Samples;Min_cycle;Max_cycle;Signal;HPM_P1;HPM_P2
2024/01/27 00:01:28;;;;;;;23.33;5.30;;;;;;;;;;5076893;28;20178;-68
2024/01/27 00:03:54;;;;;;;14.67;5.53;;;;;;;;;;5077131;28;20216;-66
2024/01/27 00:06:20;;;;;;;15.90;4.63;;;;;;;;;;5076688;28;20170;-66
2024/01/27 00:08:46;;;;;;;20.73;4.97;;;;;;;;;;5076469;28;20174;-66
2024/01/27 00:11:12;;;;;;;19.40;4.27;;;;;;;;;;5076897;28;20202;-67
2024/01/27 00:13:38;;;;;;;19.83;5.57;;;;;;;;;;5076491;28;20202;-66
2024/01/27 00:16:04;;;;;;;21.40;5.20;;;;;;;;;;5076443;28;20302;-67
2024/01/27 00:18:30;;;;;;;19.03;5.20;;;;;;;;;;5076256;28;20186;-65
2024/01/27 00:20:56;;;;;;;18.43;5.60;;;;;;;;;;5076511;28;20201;-66
2024/01/27 00:23:22;;;;;;;13.23;5.30;;;;;;;;;;5076352;28;20217;-66
2024/01/27 00:25:48;;;;;;;13.87;5.07;;;;;;;;;;5057431;28;20174;-66
2024/01/27 00:28:14;;;;;;;18.47;5.43;;;;;;;;;;5075550;28;20222;-67
2024/01/27 00:30:40;;;;;;;13.23;4.90;;;;;;;;;;5075305;28;20284;-65
2024/01/27 00:33:06;;;;;;;16.77;5.17;;;;;;;;;;5075991;28;20198;-66
2024/01/27 00:35:32;;;;;;;15.67;4.97;;;;;;;;;;5076620;28;20419;-66
2024/01/27 00:37:58;;;;;;;19.20;5.83;;;;;;;;;;5075988;28;20178;-66
2024/01/27 00:40:24;;;;;;;19.20;5.17;;;;;;;;;;5076164;28;20646;-65
2024/01/27 00:42:50;;;;;;;20.20;5.57;;;;;;;;;;5075933;28;20364;-66
2024/01/27 00:45:16;;;;;;;17.97;6.00;;;;;;;;;;5075871;28;20174;-66
2024/01/27 00:47:42;;;;;;;15.93;5.63;;;;;;;;;;5076201;28;20185;-66
2024/01/27 00:50:08;;;;;;;22.50;5.67;;;;;;;;;;5076128;28;20260;-66
2024/01/27 00:52:34;;;;;;;16.13;4.80;;;;;;;;;;5057640;28;20264;-66
2024/01/27 00:55:00;;;;;;;13.77;5.07;;;;;;;;;;5076420;28;20182;-65
2024/01/27 00:57:26;;;;;;;15.33;5.50;;;;;;;;;;5057970;28;20182;-66
2024/01/27 00:59:52;;;;;;;10.93;4.57;;;;;;;;;;5075540;28;20234;-66
2024/01/27 01:02:18;;;;;;;18.77;4.37;;;;;;;;;;5075835;28;20683;-67
2024/01/27 01:04:45;;;;;;;21.37;5.13;;;;;;;;;;5058024;28;20652;-66
2024/01/27 01:07:10;;;;;;;18.33;6.17;;;;;;;;;;5057434;28;20182;-66
2024/01/27 01:09:36;;;;;;;17.37;5.53;;;;;;;;;;5075058;28;20551;-67
2024/01/27 01:12:02;;;;;;;17.53;5.43;;;;;;;;;;5075459;28;20177;-66
2024/01/27 01:14:28;;;;;;;12.10;5.50;;;;;;;;;;5075330;28;20617;-65
2024/01/27 01:16:54;;;;;;;23.47;5.80;;;;;;;;;;5057340;28;20181;-66
2024/01/27 01:19:20;;;;;;;14.63;5.27;;;;;;;;;;5057053;28;20363;-67
2024/01/27 01:21:46;;;;;;;21.70;5.60;;;;;;;;;;5074974;28;20256;-67
2024/01/27 01:24:12;;;;;;;13.67;5.67;;;;;;;;;;5074785;28;20205;-66
2024/01/27 01:26:39;;;;;;;24.77;5.73;;;;;;;;;;5075106;28;20181;-66
2024/01/27 01:29:04;;;;;;;12.30;5.27;;;;;;;;;;5075015;28;20173;-66
2024/01/27 01:31:30;;;;;;;18.87;5.53;;;;;;;;;;5074791;28;20181;-67
2024/01/27 01:33:56;;;;;;;16.00;5.00;;;;;;;;;;5074880;28;20334;-66
2024/01/27 01:36:22;;;;;;;18.50;5.00;;;;;;;;;;5074899;28;20663;-65
2024/01/27 01:38:48;;;;;;;12.60;4.90;;;;;;;;;;5074614;28;20181;-65
2024/01/27 01:41:14;;;;;;;22.00;5.37;;;;;;;;;;5074877;28;20180;-66
2024/01/27 01:43:40;;;;;;;11.67;4.97;;;;;;;;;;5099544;22;20233;-71
2024/01/27 01:46:06;;;;;;;15.60;5.90;;;;;;;;;;5057947;28;20178;-71
2024/01/27 01:48:32;;;;;;;13.57;5.10;;;;;;;;;;5057275;28;20180;-71
2024/01/27 01:51:00;;;;;;;17.20;4.93;;;;;;;;;;5076345;28;20228;-71
2024/01/27 01:53:26;;;;;;;19.33;5.60;;;;;;;;;;5057950;28;20197;-71
2024/01/27 01:55:53;;;;;;;16.60;4.80;;;;;;;;;;5058190;28;20178;-71
2024/01/27 01:58:18;;;;;;;14.83;5.43;;;;;;;;;;5075906;28;20257;-71
2024/01/27 02:00:45;;;;;;;20.03;5.47;;;;;;;;;;5076055;28;20266;-69
2024/01/27 02:03:12;;;;;;;13.33;5.43;;;;;;;;;;5076220;28;20209;-71
2024/01/27 02:05:38;;;;;;;18.60;5.53;;;;;;;;;;5057968;28;20215;-71
2024/01/27 02:08:04;;;;;;;13.93;5.43;;;;;;;;;;5075393;28;20240;-70
2024/01/27 02:10:36;;;;;;;18.90;5.63;;;;;;;;;;5075147;28;20196;-71
2024/01/27 02:13:02;;;;;;;16.37;5.17;;;;;;;;;;5074914;28;20493;-71
2024/01/27 02:15:28;;;;;;;15.93;5.37;;;;;;;;;;5075011;28;20454;-71
2024/01/27 02:17:54;;;;;;;15.33;5.17;;;;;;;;;;5075081;28;20417;-71
2024/01/27 02:20:20;;;;;;;18.33;5.90;;;;;;;;;;5075367;28;20778;-71
2024/01/27 02:22:46;;;;;;;14.67;5.53;;;;;;;;;;5056873;28;20687;-70
2024/01/27 02:25:12;;;;;;;13.23;5.83;;;;;;;;;;5074996;28;20178;-71
2024/01/27 02:27:38;;;;;;;16.80;5.77;;;;;;;;;;5074395;28;20550;-71
2024/01/27 02:30:04;;;;;;;23.83;6.43;;;;;;;;;;5074195;28;20186;-70
2024/01/27 02:32:30;;;;;;;17.07;5.80;;;;;;;;;;5074367;28;20184;-70
2024/01/27 02:34:56;;;;;;;14.57;5.67;;;;;;;;;;5074415;28;20408;-71
2024/01/27 02:37:22;;;;;;;21.00;6.40;;;;;;;;;;5074945;28;20260;-71
2024/01/27 02:39:48;;;;;;;12.53;5.57;;;;;;;;;;5074607;28;20178;-70
2024/01/27 02:42:14;;;;;;;18.67;6.30;;;;;;;;;;5073775;28;20220;-71
2024/01/27 02:44:40;;;;;;;19.27;6.23;;;;;;;;;;5074605;28;20178;-71
2024/01/27 02:47:06;;;;;;;16.57;6.77;;;;;;;;;;5074072;28;20227;-71
2024/01/27 02:49:32;;;;;;;11.93;5.97;;;;;;;;;;5073525;28;20181;-71
2024/01/27 02:51:58;;;;;;;19.57;6.33;;;;;;;;;;5074378;28;20196;-71
2024/01/27 02:54:24;;;;;;;19.80;6.60;;;;;;;;;;5073940;28;20205;-71
2024/01/27 02:56:50;;;;;;;21.17;6.23;;;;;;;;;;5074091;28;20235;-71
2024/01/27 02:59:15;;;;;;;17.37;6.00;;;;;;;;;;5074003;28;20205;-71
2024/01/27 03:01:41;;;;;;;22.10;7.13;;;;;;;;;;5073684;28;20451;-71
2024/01/27 03:04:07;;;;;;;17.83;6.70;;;;;;;;;;5073647;28;20194;-71
2024/01/27 03:06:33;;;;;;;18.83;6.33;;;;;;;;;;5055586;28;20178;-70
2024/01/27 03:08:59;;;;;;;19.47;6.97;;;;;;;;;;5055870;28;20181;-71
2024/01/27 03:11:25;;;;;;;21.30;6.70;;;;;;;;;;5073699;28;20169;-71
2024/01/27 03:13:51;;;;;;;12.90;6.17;;;;;;;;;;5073803;28;20205;-71
2024/01/27 03:16:18;;;;;;;14.70;6.10;;;;;;;;;;5073666;28;20174;-71
2024/01/27 03:18:44;;;;;;;22.30;6.37;;;;;;;;;;5074242;28;20228;-71
2024/01/27 03:21:10;;;;;;;24.30;6.93;;;;;;;;;;5056206;28;20425;-71
2024/01/27 03:23:36;;;;;;;16.93;6.50;;;;;;;;;;5074483;28;20209;-70
2024/01/27 03:26:03;;;;;;;21.27;6.93;;;;;;;;;;5056545;28;20174;-70
2024/01/27 03:28:30;;;;;;;23.83;6.73;;;;;;;;;;5074828;28;20193;-71
2024/01/27 03:30:56;;;;;;;24.13;7.30;;;;;;;;;;5075318;28;20936;-71
2024/01/27 03:33:22;;;;;;;16.23;7.13;;;;;;;;;;5077059;28;20432;-71
2024/01/27 03:35:48;;;;;;;20.40;6.50;;;;;;;;;;5059960;28;20635;-71
2024/01/27 03:38:14;;;;;;;20.67;7.03;;;;;;;;;;5077450;28;20182;-71
2024/01/27 03:40:40;;;;;;;20.77;7.40;;;;;;;;;;5077291;28;20170;-71
2024/01/27 03:43:06;;;;;;;22.77;7.50;;;;;;;;;;5077392;28;20213;-71
2024/01/27 03:45:32;;;;;;;16.73;6.87;;;;;;;;;;5077601;28;20170;-70
2024/01/27 03:47:58;;;;;;;22.07;7.53;;;;;;;;;;5077194;28;20261;-70
2024/01/27 03:50:24;;;;;;;23.43;8.27;;;;;;;;;;5059193;28;20182;-71
2024/01/27 03:52:50;;;;;;;18.40;7.20;;;;;;;;;;5058850;28;20206;-71
2024/01/27 03:55:16;;;;;;;18.20;7.40;;;;;;;;;;5076499;28;20181;-71
2024/01/27 03:57:42;;;;;;;15.87;7.63;;;;;;;;;;5076657;28;20220;-71
2024/01/27 04:00:08;;;;;;;16.87;6.87;;;;;;;;;;5076874;28;20184;-70
2024/01/27 04:02:34;;;;;;;23.70;7.73;;;;;;;;;;5076685;28;20567;-71
2024/01/27 04:05:00;;;;;;;16.27;7.43;;;;;;;;;;5058584;28;20419;-70
2024/01/27 04:07:27;;;;;;;26.03;8.13;;;;;;;;;;5058517;28;20766;-71
2024/01/27 04:09:53;;;;;;;25.10;8.30;;;;;;;;;;5077225;28;20201;-71
2024/01/27 04:12:19;;;;;;;19.20;8.23;;;;;;;;;;5076540;28;20444;-71
2024/01/27 04:14:45;;;;;;;21.70;8.50;;;;;;;;;;5076633;28;20190;-71
2024/01/27 04:17:10;;;;;;;21.37;8.23;;;;;;;;;;5077160;28;20266;-71
2024/01/27 04:19:36;;;;;;;23.97;8.20;;;;;;;;;;5076982;28;20204;-68
2024/01/27 04:22:03;;;;;;;18.17;9.17;;;;;;;;;;5081883;28;20209;-68
2024/01/27 04:24:29;;;;;;;22.30;8.17;;;;;;;;;;5062416;28;20574;-69
2024/01/27 04:26:54;;;;;;;17.13;9.13;;;;;;;;;;5065503;28;20212;-68
2024/01/27 04:29:20;;;;;;;24.57;8.80;;;;;;;;;;5093964;28;20412;-68
2024/01/27 04:31:46;;;;;;;18.10;8.23;;;;;;;;;;5093553;28;20177;-68
2024/01/27 04:34:12;;;;;;;19.43;8.60;;;;;;;;;;5092776;28;20254;-68
2024/01/27 04:36:38;;;;;;;21.93;8.97;;;;;;;;;;5068248;28;20178;-69
2024/01/27 04:39:04;;;;;;;21.23;8.53;;;;;;;;;;5058668;28;20174;-68
2024/01/27 04:41:31;;;;;;;25.60;10.20;;;;;;;;;;5076207;28;20408;-68
2024/01/27 04:43:58;;;;;;;28.60;10.53;;;;;;;;;;5057037;28;20221;-68
2024/01/27 04:46:24;;;;;;;27.33;9.33;;;;;;;;;;5058117;28;20177;-68
2024/01/27 04:48:50;;;;;;;21.53;9.47;;;;;;;;;;5076478;28;20487;-68
2024/01/27 04:51:16;;;;;;;20.87;9.50;;;;;;;;;;5076017;28;20181;-68
2024/01/27 04:53:42;;;;;;;21.67;9.33;;;;;;;;;;5075821;28;20209;-68
2024/01/27 04:56:09;;;;;;;25.87;10.67;;;;;;;;;;5058026;28;20177;-69
2024/01/27 04:58:35;;;;;;;20.97;9.20;;;;;;;;;;5075658;28;20778;-67
2024/01/27 05:01:04;;;;;;;17.17;9.50;;;;;;;;;;5075601;28;20419;-68
2024/01/27 05:03:31;;;;;;;15.07;9.63;;;;;;;;;;5075507;28;20464;-67
2024/01/27 05:05:56;;;;;;;20.23;9.93;;;;;;;;;;5057925;28;20412;-68
2024/01/27 05:08:22;;;;;;;26.63;9.87;;;;;;;;;;5075963;28;20414;-68
2024/01/27 05:10:48;;;;;;;16.23;9.60;;;;;;;;;;5076007;28;20307;-68
2024/01/27 05:13:14;;;;;;;21.90;10.20;;;;;;;;;;5075600;28;20205;-68
2024/01/27 05:15:40;;;;;;;24.33;11.03;;;;;;;;;;5075439;28;20170;-68
2024/01/27 05:18:06;;;;;;;25.70;10.67;;;;;;;;;;5057372;28;20182;-68
2024/01/27 05:20:32;;;;;;;24.67;10.37;;;;;;;;;;5075430;28;20419;-67
2024/01/27 05:22:58;;;;;;;27.77;11.33;;;;;;;;;;5075395;28;20228;-68
2024/01/27 05:25:24;;;;;;;27.93;10.27;;;;;;;;;;5075302;28;20189;-68
2024/01/27 05:27:50;;;;;;;21.00;10.17;;;;;;;;;;5074910;28;20176;-69
2024/01/27 05:30:16;;;;;;;24.73;10.73;;;;;;;;;;5074603;28;20408;-68
2024/01/27 05:32:42;;;;;;;26.13;10.70;;;;;;;;;;5075020;28;20663;-67
2024/01/27 05:35:10;;;;;;;23.33;10.53;;;;;;;;;;5074659;28;20188;-67
2024/01/27 05:37:36;;;;;;;22.07;11.23;;;;;;;;;;5075086;28;20596;-68
2024/01/27 05:40:02;;;;;;;36.70;10.43;;;;;;;;;;5074827;28;20412;-67
2024/01/27 05:42:28;;;;;;;25.67;9.80;;;;;;;;;;5074353;28;20300;-69
2024/01/27 05:44:54;;;;;;;27.33;10.23;;;;;;;;;;5074944;28;20450;-67
2024/01/27 05:47:20;;;;;;;27.87;10.50;;;;;;;;;;5074712;28;20181;-68
2024/01/27 05:49:46;;;;;;;22.83;9.83;;;;;;;;;;5074621;28;20180;-67
2024/01/27 05:52:13;;;;;;;26.10;9.87;;;;;;;;;;5074359;28;20216;-67
2024/01/27 05:54:41;;;;;;;26.33;10.07;;;;;;;;;;5074876;28;20177;-67
2024/01/27 05:57:07;;;;;;;29.13;10.70;;;;;;;;;;5073245;28;20223;-68
2024/01/27 05:59:33;;;;;;;24.40;9.03;;;;;;;;;;5056778;28;20792;-68
2024/01/27 06:01:59;;;;;;;20.93;10.30;;;;;;;;;;5074467;28;20412;-68
2024/01/27 06:04:25;;;;;;;24.90;10.23;;;;;;;;;;5074144;28;20616;-67
2024/01/27 06:06:51;;;;;;;26.80;9.30;;;;;;;;;;5074112;28;20178;-67
2024/01/27 06:09:17;;;;;;;22.60;9.40;;;;;;;;;;5074171;28;20541;-67
2024/01/27 06:11:43;;;;;;;33.53;10.23;;;;;;;;;;5074350;28;20547;-67
2024/01/27 06:14:09;;;;;;;16.83;8.93;;;;;;;;;;5056178;28;20201;-68
2024/01/27 06:16:35;;;;;;;28.57;9.90;;;;;;;;;;5056622;28;20602;-68
2024/01/27 06:19:01;;;;;;;23.10;9.00;;;;;;;;;;5074035;28;20504;-68
2024/01/27 06:21:27;;;;;;;26.20;10.03;;;;;;;;;;5074322;28;20181;-67
2024/01/27 06:23:53;;;;;;;26.50;10.23;;;;;;;;;;5073584;28;20216;-68
2024/01/27 06:26:21;;;;;;;28.20;9.73;;;;;;;;;;5055886;28;20183;-68
2024/01/27 06:28:47;;;;;;;32.20;10.43;;;;;;;;;;5073982;28;20440;-68
2024/01/27 06:31:14;;;;;;;21.17;9.87;;;;;;;;;;5073970;28;20184;-68
2024/01/27 06:33:40;;;;;;;17.80;8.50;;;;;;;;;;5074308;28;20224;-67
2024/01/27 06:36:09;;;;;;;24.83;9.43;;;;;;;;;;5074486;28;20446;-67
2024/01/27 06:38:35;;;;;;;22.67;9.37;;;;;;;;;;5074648;28;20400;-69
2024/01/27 06:41:01;;;;;;;20.90;8.60;;;;;;;;;;5059421;28;20496;-68
2024/01/27 06:43:27;;;;;;;21.23;9.17;;;;;;;;;;5089424;28;20221;-68
2024/01/27 06:45:53;;;;;;;28.77;8.93;;;;;;;;;;5072001;28;20208;-68
2024/01/27 06:48:19;;;;;;;19.93;8.70;;;;;;;;;;5090087;28;20174;-68
2024/01/27 06:50:45;;;;;;;22.17;8.97;;;;;;;;;;5079646;28;20397;-67
2024/01/27 06:53:11;;;;;;;18.50;8.60;;;;;;;;;;5056969;28;20241;-67
2024/01/27 06:55:37;;;;;;;18.80;9.07;;;;;;;;;;5074539;28;20201;-67
2024/01/27 06:58:03;;;;;;;25.07;10.77;;;;;;;;;;5074261;28;20178;-67
2024/01/27 07:00:29;;;;;;;36.13;18.40;;;;;;;;;;5056375;28;20177;-67
2024/01/27 07:02:58;;;;;;;33.03;13.83;;;;;;;;;;5073695;28;20210;-67
2024/01/27 07:05:24;;;;;;;25.13;10.50;;;;;;;;;;5056161;28;20595;-67
2024/01/27 07:07:49;;;;;;;23.07;9.50;;;;;;;;;;5075716;28;20440;-67
2024/01/27 07:10:15;;;;;;;22.00;8.87;;;;;;;;;;5077830;28;20408;-68
2024/01/27 07:12:41;;;;;;;21.87;9.57;;;;;;;;;;5077586;28;20566;-67
2024/01/27 07:15:07;;;;;;;26.37;9.80;;;;;;;;;;5078322;28;20174;-67
2024/01/27 07:17:34;;;;;;;20.93;9.53;;;;;;;;;;5078049;28;20216;-67
2024/01/27 07:20:00;;;;;;;17.20;8.30;;;;;;;;;;5077928;28;20412;-67
2024/01/27 07:22:26;;;;;;;21.30;8.73;;;;;;;;;;5077496;28;21092;-67
2024/01/27 07:24:52;;;;;;;28.20;11.77;;;;;;;;;;5077979;28;20200;-67
2024/01/27 07:27:21;;;;;;;35.90;17.57;;;;;;;;;;5077238;28;20192;-67
2024/01/27 07:29:47;;;;;;;26.57;9.93;;;;;;;;;;5077687;28;20757;-68
2024/01/27 07:32:15;;;;;;;23.80;9.47;;;;;;;;;;5059304;28;20420;-67
2024/01/27 07:34:42;;;;;;;23.03;9.90;;;;;;;;;;5077290;28;20174;-67
2024/01/27 07:37:08;;;;;;;31.17;10.13;;;;;;;;;;5077175;28;20412;-67
2024/01/27 07:39:34;;;;;;;33.90;9.57;;;;;;;;;;5077794;28;20416;-67
2024/01/27 07:42:00;;;;;;;28.63;9.93;;;;;;;;;;5077784;28;20198;-67
2024/01/27 07:44:26;;;;;;;21.87;9.40;;;;;;;;;;5059119;28;20513;-67
2024/01/27 07:46:52;;;;;;;36.93;10.87;;;;;;;;;;5077302;28;20235;-67
2024/01/27 07:49:18;;;;;;;23.43;9.33;;;;;;;;;;5059529;28;20170;-67
2024/01/27 07:51:45;;;;;;;22.27;10.20;;;;;;;;;;5077536;28;20182;-68
2024/01/27 07:54:11;;;;;;;29.77;9.33;;;;;;;;;;5059784;28;20443;-67
2024/01/27 07:56:38;;;;;;;26.53;10.27;;;;;;;;;;5077940;28;20182;-67
2024/01/27 07:59:04;;;;;;;22.43;10.80;;;;;;;;;;5059560;28;20497;-67
2024/01/27 08:01:30;;;;;;;29.57;11.13;;;;;;;;;;5077662;28;20416;-68
2024/01/27 08:03:56;;;;;;;36.93;11.00;;;;;;;;;;5077330;28;20215;-68
2024/01/27 08:06:30;;;;;;;33.37;10.53;;;;;;;;;;5077498;28;20237;-68
2024/01/27 08:08:56;;;;;;;25.87;9.87;;;;;;;;;;5077790;28;20154;-67
2024/01/27 08:11:22;;;;;;;29.03;9.90;;;;;;;;;;5077935;28;20170;-67
2024/01/27 08:13:48;;;;;;;34.50;10.27;;;;;;;;;;5078203;28;20198;-68
2024/01/27 08:16:14;;;;;;;25.30;10.97;;;;;;;;;;5060002;28;20182;-67
2024/01/27 08:18:42;;;;;;;25.20;10.20;;;;;;;;;;5058587;28;20424;-67
2024/01/27 08:21:08;;;;;;;24.97;10.13;;;;;;;;;;5077934;28;20412;-67
2024/01/27 08:23:34;;;;;;;28.10;10.03;;;;;;;;;;5097688;22;20226;-67
2024/01/27 08:26:00;;;;;;;25.83;10.53;;;;;;;;;;5058760;28;20416;-67
2024/01/27 08:28:27;;;;;;;28.53;9.80;;;;;;;;;;5058881;28;20443;-67
2024/01/27 08:30:53;;;;;;;23.43;11.20;;;;;;;;;;5058508;28;20177;-68
2024/01/27 08:33:19;;;;;;;29.00;9.40;;;;;;;;;;5058497;28;20226;-68
2024/01/27 08:35:50;;;;;;;27.17;11.03;;;;;;;;;;5058921;28;20548;-68
2024/01/27 08:38:16;;;;;;;32.83;9.97;;;;;;;;;;5077047;28;20220;-68
2024/01/27 08:40:42;;;;;;;32.93;8.30;;;;;;;;;;5076640;28;20174;-68
2024/01/27 08:43:08;;;;;;;19.40;8.07;;;;;;;;;;5076818;28;20209;-68
2024/01/27 08:45:34;;;;;;;22.53;9.40;;;;;;;;;;5058862;28;20669;-69
2024/01/27 08:47:59;;;;;;;20.60;8.67;;;;;;;;;;5078537;28;20234;-69
2024/01/27 08:50:25;;;;;;;38.73;18.23;;;;;;;;;;5077977;28;20181;-69
2024/01/27 08:52:51;;;;;;;34.17;15.07;;;;;;;;;;5078476;28;20576;-68
2024/01/27 08:55:18;;;;;;;53.73;29.80;;;;;;;;;;5066692;28;20212;-68
2024/01/27 08:57:45;;;;;;;24.83;10.27;;;;;;;;;;5086831;28;20213;-69
2024/01/27 09:00:12;;;;;;;21.87;9.07;;;;;;;;;;5089556;28;20178;-69
2024/01/27 09:02:38;;;;;;;25.30;9.60;;;;;;;;;;5087897;28;20210;-68
2024/01/27 09:05:05;;;;;;;22.27;8.27;;;;;;;;;;5080602;28;20234;-68
2024/01/27 09:07:31;;;;;;;30.83;9.13;;;;;;;;;;5076122;28;20173;-68
2024/01/27 09:09:58;;;;;;;26.07;10.63;;;;;;;;;;5076290;28;20189;-68
2024/01/27 09:12:24;;;;;;;22.13;8.93;;;;;;;;;;5075402;28;20198;-68
2024/01/27 09:14:50;;;;;;;26.53;11.03;;;;;;;;;;5075598;28;20412;-68
2024/01/27 09:17:16;;;;;;;22.73;8.57;;;;;;;;;;5057404;28;20268;-68
2024/01/27 09:19:42;;;;;;;27.37;9.37;;;;;;;;;;5075834;28;20185;-68
2024/01/27 09:22:08;;;;;;;18.17;8.03;;;;;;;;;;5057082;28;20208;-67
2024/01/27 09:24:34;;;;;;;29.00;9.57;;;;;;;;;;5057443;28;20253;-68
2024/01/27 09:27:01;;;;;;;20.73;8.37;;;;;;;;;;5057935;28;20268;-68
2024/01/27 09:29:27;;;;;;;25.67;12.43;;;;;;;;;;5075314;28;20261;-68
2024/01/27 09:31:53;;;;;;;29.20;16.00;;;;;;;;;;5058341;28;20209;-68
2024/01/27 09:34:19;;;;;;;20.27;9.13;;;;;;;;;;5058792;28;20182;-70
2024/01/27 09:36:45;;;;;;;20.83;9.13;;;;;;;;;;5078494;28;20248;-69
2024/01/27 09:39:11;;;;;;;26.63;9.80;;;;;;;;;;5060086;28;20181;-69
2024/01/27 09:41:38;;;;;;;32.77;12.10;;;;;;;;;;5062465;28;20272;-68
2024/01/27 09:44:04;;;;;;;29.57;10.30;;;;;;;;;;5066022;28;20209;-68
2024/01/27 09:46:31;;;;;;;20.93;9.47;;;;;;;;;;5086957;28;20173;-68
2024/01/27 09:48:57;;;;;;;20.83;8.70;;;;;;;;;;5079912;28;20174;-68
2024/01/27 09:51:23;;;;;;;22.03;8.97;;;;;;;;;;5057786;28;20235;-68
2024/01/27 09:53:51;;;;;;;24.83;9.20;;;;;;;;;;5075555;28;20198;-68
2024/01/27 09:56:21;;;;;;;18.87;9.17;;;;;;;;;;5057343;28;20269;-68
2024/01/27 09:58:50;;;;;;;26.00;10.77;;;;;;;;;;5057213;28;20174;-68
2024/01/27 10:01:19;;;;;;;25.77;11.90;;;;;;;;;;5075296;28;20185;-68
2024/01/27 10:03:46;;;;;;;25.23;10.37;;;;;;;;;;5074985;28;20216;-68
2024/01/27 10:06:12;;;;;;;24.73;9.03;;;;;;;;;;5057305;28;20224;-68
2024/01/27 10:08:38;;;;;;;20.73;9.50;;;;;;;;;;5075172;28;20231;-68
2024/01/27 10:11:07;;;;;;;27.50;12.67;;;;;;;;;;5077012;28;20170;-68
2024/01/27 10:13:33;;;;;;;25.50;9.23;;;;;;;;;;5077254;28;20204;-68
2024/01/27 10:16:11;;;;;;;20.10;9.87;;;;;;;;;;5060345;28;20189;-69
2024/01/27 10:18:37;;;;;;;22.93;11.17;;;;;;;;;;5076795;28;20158;-68
2024/01/27 10:21:33;;;;;;;23.87;9.83;;;;;;;;;;5075393;28;20189;-68
2024/01/27 10:24:00;;;;;;;24.17;11.63;;;;;;;;;;5040229;28;20229;-68
2024/01/27 10:26:26;;;;;;;25.97;14.70;;;;;;;;;;5056993;28;20190;-68
2024/01/27 10:28:56;;;;;;;23.37;11.47;;;;;;;;;;5057094;28;20277;-69
2024/01/27 10:31:26;;;;;;;22.83;8.87;;;;;;;;;;5075176;28;20535;-68
2024/01/27 10:34:01;;;;;;;24.33;11.10;;;;;;;;;;5075514;28;20193;-68
2024/01/27 10:36:27;;;;;;;27.97;10.73;;;;;;;;;;5056536;28;20165;-68
2024/01/27 10:38:53;;;;;;;20.70;9.03;;;;;;;;;;5056490;28;20521;-68
2024/01/27 10:41:27;;;;;;;27.43;9.03;;;;;;;;;;5074710;28;20249;-68
2024/01/27 10:43:54;;;;;;;31.07;14.73;;;;;;;;;;5060542;28;20504;-69
2024/01/27 10:46:24;;;;;;;46.23;19.60;;;;;;;;;;5078617;28;20634;-68
2024/01/27 10:48:54;;;;;;;47.40;20.87;;;;;;;;;;5079567;28;20185;-68
2024/01/27 10:51:26;;;;;;;21.17;6.60;;;;;;;;;;5078517;28;20169;-68
2024/01/27 10:53:52;;;;;;;18.00;6.57;;;;;;;;;;5078363;28;20224;-68
2024/01/27 10:56:19;;;;;;;58.73;28.00;;;;;;;;;;5079072;28;20177;-68
2024/01/27 10:58:47;;;;;;;66.00;26.87;;;;;;;;;;5078573;28;20575;-68
2024/01/27 11:01:14;;;;;;;29.87;11.63;;;;;;;;;;5060383;28;20209;-68
2024/01/27 11:03:41;;;;;;;16.30;6.83;;;;;;;;;;5078895;28;20607;-68
2024/01/27 11:06:07;;;;;;;24.93;7.77;;;;;;;;;;5078307;28;20174;-68
2024/01/27 11:08:37;;;;;;;23.57;11.37;;;;;;;;;;5078619;28;20703;-68
2024/01/27 11:11:03;;;;;;;19.47;6.50;;;;;;;;;;5078586;28;20546;-68
2024/01/27 11:13:30;;;;;;;23.40;9.10;;;;;;;;;;5078278;28;20201;-70
2024/01/27 11:15:58;;;;;;;22.83;7.20;;;;;;;;;;5078945;28;20178;-70
2024/01/27 11:18:25;;;;;;;19.70;6.87;;;;;;;;;;5079099;28;20173;-70
2024/01/27 11:20:57;;;;;;;22.57;8.20;;;;;;;;;;5078680;28;20231;-70
2024/01/27 11:23:31;;;;;;;30.33;13.43;;;;;;;;;;5077851;28;20637;-70
2024/01/27 11:26:07;;;;;;;18.87;5.63;;;;;;;;;;5062652;28;20244;-69
2024/01/27 11:28:33;;;;;;;16.23;6.13;;;;;;;;;;5095877;28;20158;-69
2024/01/27 11:31:03;;;;;;;22.37;8.17;;;;;;;;;;5077175;28;20184;-69
2024/01/27 11:33:29;;;;;;;17.87;6.63;;;;;;;;;;5071696;28;20213;-70
2024/01/27 11:36:02;;;;;;;15.50;5.47;;;;;;;;;;5083967;28;20291;-69
2024/01/27 11:38:28;;;;;;;9.27;4.63;;;;;;;;;;5063714;28;20177;-70
2024/01/27 11:40:54;;;;;;;11.70;5.30;;;;;;;;;;5061849;28;20204;-70
2024/01/27 11:43:20;;;;;;;15.67;5.40;;;;;;;;;;5080163;28;20678;-68
2024/01/27 11:46:05;;;;;;;13.20;4.60;;;;;;;;;;5079221;28;20259;-70
2024/01/27 11:48:31;;;;;;;24.73;6.63;;;;;;;;;;5061747;28;20216;-69
2024/01/27 11:51:07;;;;;;;17.63;5.97;;;;;;;;;;5079065;28;20190;-69
2024/01/27 11:53:34;;;;;;;15.40;5.30;;;;;;;;;;5079867;28;20201;-70
2024/01/27 11:56:01;;;;;;;19.67;5.70;;;;;;;;;;5062257;28;20186;-70
2024/01/27 11:58:27;;;;;;;15.37;5.67;;;;;;;;;;5061799;28;20174;-70
2024/01/27 12:00:53;;;;;;;21.53;5.53;;;;;;;;;;5079482;28;20174;-69
2024/01/27 12:03:19;;;;;;;15.53;5.47;;;;;;;;;;5078347;28;20201;-67
2024/01/27 12:05:45;;;;;;;15.43;5.23;;;;;;;;;;5059963;28;20178;-69
2024/01/27 12:08:11;;;;;;;17.00;5.40;;;;;;;;;;5077759;28;20174;-69
2024/01/27 12:10:37;;;;;;;22.80;5.43;;;;;;;;;;5060007;28;20653;-69
2024/01/27 12:13:04;;;;;;;13.13;5.47;;;;;;;;;;5059856;28;20723;-70
2024/01/27 12:15:30;;;;;;;14.93;5.17;;;;;;;;;;5077554;28;20178;-70
2024/01/27 12:17:56;;;;;;;19.30;6.17;;;;;;;;;;5059583;28;20541;-70
2024/01/27 12:20:25;;;;;;;12.73;5.00;;;;;;;;;;5078450;28;20628;-69
2024/01/27 12:22:52;;;;;;;14.37;6.00;;;;;;;;;;5077296;28;20217;-70
2024/01/27 12:25:22;;;;;;;20.27;5.80;;;;;;;;;;5077831;28;20658;-69
2024/01/27 12:27:47;;;;;;;17.20;5.40;;;;;;;;;;5077673;28;20265;-69
2024/01/27 12:30:14;;;;;;;17.80;4.67;;;;;;;;;;5077353;28;20220;-69
2024/01/27 12:32:40;;;;;;;14.30;5.70;;;;;;;;;;5077204;28;20228;-70
2024/01/27 12:35:07;;;;;;;12.20;5.20;;;;;;;;;;5077826;28;20188;-70
2024/01/27 12:37:33;;;;;;;12.13;5.20;;;;;;;;;;5081208;28;20174;-70
2024/01/27 12:39:58;;;;;;;17.27;5.00;;;;;;;;;;5090719;28;20181;-70
2024/01/27 12:42:24;;;;;;;12.30;4.90;;;;;;;;;;5073762;28;20206;-70
2024/01/27 12:44:51;;;;;;;14.10;5.03;;;;;;;;;;5080255;28;20213;-70
2024/01/27 12:47:19;;;;;;;12.67;4.70;;;;;;;;;;5078144;28;20185;-70
2024/01/27 12:49:45;;;;;;;14.87;4.87;;;;;;;;;;5078579;28;20627;-70
2024/01/27 12:52:12;;;;;;;12.60;4.63;;;;;;;;;;5061186;28;20713;-70
2024/01/27 12:54:38;;;;;;;10.93;4.53;;;;;;;;;;5078252;28;20177;-70
2024/01/27 12:57:06;;;;;;;23.87;4.83;;;;;;;;;;5059808;28;20178;-71
2024/01/27 12:59:31;;;;;;;10.70;4.47;;;;;;;;;;5076710;28;20684;-70
2024/01/27 13:01:57;;;;;;;15.30;6.77;;;;;;;;;;5077439;28;20178;-70
2024/01/27 13:04:23;;;;;;;12.03;5.83;;;;;;;;;;5075997;28;20201;-69
2024/01/27 13:06:50;;;;;;;12.53;4.33;;;;;;;;;;5076246;28;20184;-70
2024/01/27 13:09:16;;;;;;;10.37;4.40;;;;;;;;;;5058656;28;20276;-70
2024/01/27 13:11:42;;;;;;;9.60;4.87;;;;;;;;;;5076700;28;20170;-70
2024/01/27 13:14:09;;;;;;;12.73;4.20;;;;;;;;;;5076299;28;20687;-70
2024/01/27 13:16:35;;;;;;;13.53;4.03;;;;;;;;;;5058197;28;20182;-70
2024/01/27 13:19:01;;;;;;;13.50;5.20;;;;;;;;;;5058795;28;20561;-70
2024/01/27 13:21:27;;;;;;;16.00;5.17;;;;;;;;;;5076749;28;20185;-69
2024/01/27 13:23:53;;;;;;;12.63;3.90;;;;;;;;;;5075969;28;20259;-70
2024/01/27 13:26:19;;;;;;;19.13;4.23;;;;;;;;;;5058819;28;20173;-70
2024/01/27 13:28:48;;;;;;;13.23;3.60;;;;;;;;;;5058731;28;20535;-70
2024/01/27 13:31:14;;;;;;;16.90;4.73;;;;;;;;;;5058845;28;20186;-70
2024/01/27 13:33:40;;;;;;;14.43;3.67;;;;;;;;;;5076934;28;20583;-70
2024/01/27 13:36:06;;;;;;;12.83;3.80;;;;;;;;;;5076725;28;20182;-70
2024/01/27 13:38:33;;;;;;;9.27;3.37;;;;;;;;;;5076253;28;20659;-70
2024/01/27 13:40:59;;;;;;;11.47;3.40;;;;;;;;;;5076696;28;20181;-69
2024/01/27 13:43:25;;;;;;;9.60;3.33;;;;;;;;;;5075803;28;20213;-69
2024/01/27 13:45:51;;;;;;;10.40;3.63;;;;;;;;;;5076454;28;20246;-69
2024/01/27 13:48:18;;;;;;;13.77;3.30;;;;;;;;;;5057558;28;20178;-69
2024/01/27 13:50:45;;;;;;;8.93;3.13;;;;;;;;;;5057601;28;20185;-69
2024/01/27 13:53:11;;;;;;;9.63;3.23;;;;;;;;;;5075430;28;20201;-69
2024/01/27 13:55:37;;;;;;;7.47;3.10;;;;;;;;;;5075428;28;20178;-69
2024/01/27 13:58:03;;;;;;;8.00;3.27;;;;;;;;;;5075216;28;20208;-68
2024/01/27 14:00:30;;;;;;;11.97;3.93;;;;;;;;;;5056873;28;20193;-68
2024/01/27 14:02:56;;;;;;;11.57;5.10;;;;;;;;;;5074790;28;20237;-69
2024/01/27 14:05:22;;;;;;;8.30;3.27;;;;;;;;;;5075626;28;20170;-69
2024/01/27 14:07:48;;;;;;;9.97;3.57;;;;;;;;;;5057868;28;20261;-69
2024/01/27 14:10:14;;;;;;;7.73;2.87;;;;;;;;;;5058114;28;20214;-71
2024/01/27 14:12:40;;;;;;;9.93;3.70;;;;;;;;;;5077748;28;20209;-69
2024/01/27 14:15:06;;;;;;;7.70;3.17;;;;;;;;;;5059292;28;20782;-69
2024/01/27 14:17:34;;;;;;;10.97;3.50;;;;;;;;;;5076774;28;20200;-69
2024/01/27 14:20:00;;;;;;;10.17;3.23;;;;;;;;;;5058402;28;20182;-69
2024/01/27 14:22:27;;;;;;;12.33;4.97;;;;;;;;;;5057333;28;20317;-69
2024/01/27 14:24:53;;;;;;;14.60;3.77;;;;;;;;;;5057067;28;20178;-69